Time;durP1;ratioP1;P1;durP2;ratioP2;P2;SDS_P1;SDS_P2;PMS_P1;PMS_P2;Temp;Humidity;BMP_temperature;BMP_pressure;BME280_temperature;BME280_humidity;BME280_pressure;Samples;Min_cycle;Max_cycle;Signal;HPM_P1;HPM_P2
2023/09/18 00:02:08;;;;;;;;;4.75;4.50;;;;;24.59;100.00;99887.28;6346398;22;46265;-87
2023/09/18 00:07:10;;;;;;;;;11.33;9.67;;;;;24.35;100.00;99896.69;6199267;22;45275;-80
2023/09/18 00:09:36;;;;;;;;;8.00;7.00;;;;;24.28;100.00;99888.97;6185687;22;45340;-79
2023/09/18 00:12:01;;;;;;;;;8.33;8.33;;;;;24.23;100.00;99882.94;6133067;23;47088;-78
2023/09/18 00:14:27;;;;;;;;;10.00;8.50;;;;;24.22;100.00;99886.59;6157484;22;45331;-78
2023/09/18 00:17:31;;;;;;;;;6.75;6.75;;;;;24.58;100.00;99885.50;6183854;23;45286;-78
2023/09/18 00:20:00;;;;;;;;;5.50;5.50;;;;;24.12;100.00;99887.13;6184604;22;45518;-78
2023/09/18 00:22:26;;;;;;;;;4.00;4.00;;;;;24.10;100.00;99878.19;6185614;23;45382;-78
2023/09/18 00:24:51;;;;;;;;;4.25;3.75;;;;;24.07;100.00;99878.34;6158345;22;45894;-78
2023/09/18 00:27:20;;;;;;;;;3.00;3.00;;;;;24.31;100.00;99884.25;6186068;23;45585;-79
2023/09/18 00:29:45;;;;;;;;;5.50;4.50;;;;;24.06;100.00;99873.88;6186029;22;44765;-78
2023/09/18 00:32:11;;;;;;;;;5.50;4.75;;;;;24.06;100.00;99878.44;6158731;22;47359;-78
2023/09/18 00:34:36;;;;;;;;;5.00;3.25;;;;;24.00;100.00;99874.22;6158895;22;45292;-79
2023/09/18 00:37:02;;;;;;;;;5.25;4.50;;;;;24.38;100.00;99868.47;6185575;23;45290;-78
2023/09/18 00:39:27;;;;;;;;;1.00;1.00;;;;;24.48;100.00;99874.25;6158402;22;45245;-79
2023/09/18 00:41:54;;;;;;;;;3.00;3.00;;;;;24.09;100.00;99891.84;6182335;23;45260;-79
2023/09/18 00:44:20;;;;;;;;;2.00;2.00;;;;;24.12;100.00;99903.44;6182564;22;45339;-79
2023/09/18 00:46:46;;;;;;;;;3.00;3.00;;;;;24.10;100.00;99894.47;6184020;23;45342;-79
2023/09/18 00:49:12;;;;;;;;;3.00;3.00;;;;;24.14;100.00;99909.66;6155756;22;45792;-78
2023/09/18 00:51:38;;;;;;;;;3.50;3.50;;;;;24.34;100.00;99902.25;6155422;22;48147;-78
2023/09/18 00:54:04;;;;;;;;;3.00;3.00;;;;;24.11;100.00;99907.09;6182421;23;45263;-78
2023/09/18 00:56:29;;;;;;;;;2.25;2.25;;;;;24.09;100.00;99902.72;6181990;23;44685;-79
2023/09/18 00:58:55;;;;;;;;;3.75;3.75;;;;;24.11;100.00;99895.34;6183510;22;44684;-78
2023/09/18 01:01:23;;;;;;;;;4.00;4.00;;;;;24.39;100.00;99897.41;6186141;22;47614;-87
2023/09/18 01:03:53;;;;;;;;;3.00;2.25;;;;;24.46;100.00;99879.78;6161247;22;45338;-86
2023/09/18 01:06:20;;;;;;;;;3.25;3.25;;;;;24.08;100.00;99880.13;6202253;22;44790;-87
2023/09/18 01:57:53;;;;;;;;;1.75;1.00;;;;;23.84;94.13;99870.59;6219841;22;44953;-82
2023/09/18 02:00:20;;;;;;;;;2.50;1.25;;;;;23.84;94.24;99873.31;6327829;22;44660;-82
2023/09/18 02:02:46;;;;;;;;;1.50;1.50;;;;;23.74;93.00;99871.06;6325555;22;46048;-82
2023/09/18 02:05:12;;;;;;;;;1.00;1.00;;;;;23.78;92.80;99865.53;6222227;22;45283;-82
2023/09/18 02:07:37;;;;;;;;;1.75;1.75;;;;;23.75;93.56;99863.78;6298677;22;44708;-87
2023/09/18 02:10:06;;;;;;;;;1.00;1.00;;;;;23.74;93.26;99862.91;6190161;22;45425;-87
2023/09/18 02:12:33;;;;;;;;;2.00;1.00;;;;;23.70;93.51;99866.75;6189981;22;46985;-85
2023/09/18 02:15:04;;;;;;;;;1.25;1.25;;;;;23.70;93.41;99872.19;6191427;22;45367;-86
2023/09/18 02:17:30;;;;;;;;;1.25;1.25;;;;;23.71;92.35;99876.69;6191346;22;45364;-86
2023/09/18 02:19:56;;;;;;;;;2.00;2.00;;;;;23.68;93.55;99876.84;6166472;22;45321;-87
2023/09/18 02:22:21;;;;;;;;;2.67;2.33;;;;;23.70;92.78;99883.06;6190228;22;46964;-85
2023/09/18 02:24:47;;;;;;;;;2.00;2.00;;;;;23.70;91.91;99884.91;6190880;22;45179;-85
2023/09/18 02:27:12;;;;;;;;;1.50;1.50;;;;;23.71;93.41;99886.63;6217540;22;44791;-86
2023/09/18 02:29:41;;;;;;;;;2.67;2.67;;;;;23.67;92.15;99887.75;6191284;22;44740;-87
2023/09/18 02:32:06;;;;;;;;;2.00;2.00;;;;;23.63;91.52;99884.38;6218055;22;45526;-88
2023/09/18 02:34:33;;;;;;;;;3.00;3.00;;;;;23.59;91.96;99884.59;6215949;22;45305;-84
2023/09/18 02:36:58;;;;;;;;;3.00;2.00;;;;;23.56;92.47;99886.50;6188606;22;45380;-85
2023/09/18 02:39:24;;;;;;;;;2.00;1.00;;;;;23.56;92.51;99875.66;6188943;22;44771;-87
2023/09/18 02:41:51;;;;;;;;;2.00;2.00;;;;;23.59;91.49;99888.16;6189451;22;47431;-87
2023/09/18 02:44:18;;;;;;;;;4.00;2.00;;;;;23.54;92.12;99898.41;6217340;22;45247;-86
2023/09/18 02:46:43;;;;;;;;;1.33;1.33;;;;;23.48;92.03;99896.03;6217658;22;45359;-87
2023/09/18 02:49:09;;;;;;;;;3.00;1.33;;;;;23.49;91.68;99887.81;6219528;22;45228;-87
2023/09/18 02:51:36;;;;;;;;;1.00;1.00;;;;;23.48;91.96;99890.59;6193063;22;45317;-85
2023/09/18 02:54:03;;;;;;;;;3.33;2.33;;;;;23.44;91.50;99889.88;6192276;22;45952;-87
2023/09/18 02:56:30;;;;;;;;;2.00;2.00;;;;;23.60;91.47;99880.94;6186586;22;45344;-85
2023/09/18 02:58:55;;;;;;;;;1.50;1.50;;;;;23.35;91.91;99879.53;6188683;23;45433;-87
2023/09/18 03:01:22;;;;;;;;;2.67;2.67;;;;;23.64;91.57;99890.66;6189415;22;45958;-88
2023/09/18 03:03:48;;;;;;;;;3.67;3.67;;;;;23.39;91.70;99888.34;6162999;22;45298;-88
2023/09/18 03:06:13;;;;;;;;;2.00;2.00;;;;;23.47;90.49;99877.97;6190531;23;45195;-83
2023/09/18 03:09:32;;;;;;;;;3.33;2.00;;;;;23.82;89.87;99876.13;6189201;22;45506;-82
2023/09/18 03:11:57;;;;;;;;;4.00;2.00;;;;;23.36;91.10;99874.00;6188508;23;47291;-82
2023/09/18 03:14:22;;;;;;;;;3.00;2.33;;;;;23.39;91.98;99874.78;6190379;22;45214;-82
2023/09/18 03:16:48;;;;;;;;;3.67;1.67;;;;;23.40;91.66;99884.69;6188571;22;45457;-83
2023/09/18 03:19:13;;;;;;;;;2.00;1.00;;;;;23.39;90.89;99872.06;6188773;22;45432;-82
2023/09/18 03:22:32;;;;;;;;;3.00;3.00;;;;;23.78;90.81;99877.25;6186135;23;47366;-82
2023/09/18 03:24:57;;;;;;;;;2.67;2.67;;;;;23.34;91.15;99884.06;6189153;22;44789;-80
2023/09/18 03:27:28;;;;;;;;;4.00;3.00;;;;;23.31;91.28;99862.53;6186704;22;45179;-78
2023/09/18 03:29:54;;;;;;;;;2.75;2.00;;;;;23.29;90.99;99869.88;6183742;23;45317;-78
2023/09/18 03:32:19;;;;;;;;;4.00;3.00;;;;;23.26;91.67;99866.44;6181892;23;46851;-79
2023/09/18 03:35:32;;;;;;;;;1.25;1.00;;;;;23.69;90.55;99875.88;6179585;23;45370;-78
2023/09/18 03:37:57;;;;;;;;;5.67;4.00;;;;;23.27;91.01;99871.78;6182005;22;44792;-78
2023/09/18 03:40:23;;;;;;;;;3.25;2.75;;;;;23.22;91.66;99868.41;6182571;22;45290;-79
2023/09/18 03:42:49;;;;;;;;;4.00;4.00;;;;;23.27;92.01;99865.44;6207293;22;47147;-79
2023/09/18 03:45:15;;;;;;;;;2.00;2.00;;;;;23.30;91.90;99860.75;6182586;22;45420;-79
2023/09/18 03:48:37;;;;;;;;;2.50;2.00;;;;;23.66;90.94;99862.47;6180363;23;45376;-78
2023/09/18 03:51:07;;;;;;;;;2.25;2.00;;;;;23.61;91.37;99861.81;6182556;23;45382;-78
2023/09/18 03:53:33;;;;;;;;;3.00;3.00;;;;;23.40;90.71;99860.28;6158898;23;47082;-79
2023/09/18 03:55:59;;;;;;;;;2.33;2.00;;;;;23.44;90.72;99853.72;6184384;22;44716;-79
2023/09/18 03:58:28;;;;;;;;;1.00;1.00;;;;;23.69;90.53;99855.97;6184740;23;45356;-79
2023/09/18 04:01:32;;;;;;;;;3.25;2.00;;;;;24.03;88.13;99855.03;6181321;23;45385;-79
2023/09/18 04:03:58;;;;;;;;;2.50;2.00;;;;;23.38;90.64;99860.34;6188691;22;45019;-82
2023/09/18 04:06:24;;;;;;;;;5.50;4.00;;;;;23.56;90.80;99861.22;6190534;22;44810;-81
2023/09/18 04:08:51;;;;;;;;;2.00;2.00;;;;;23.36;90.59;99854.13;6187136;22;44731;-82
2023/09/18 04:11:18;;;;;;;;;3.00;3.00;;;;;23.34;90.96;99848.78;6189011;22;44743;-81
2023/09/18 04:20:51;;;;;;;;;2.75;2.75;;;;;23.30;90.17;99852.63;6189334;22;44831;-81
2023/09/18 04:23:18;;;;;;;;;2.50;2.50;;;;;23.52;90.78;99854.19;6187353;22;44857;-82
2023/09/18 04:25:46;;;;;;;;;2.75;2.75;;;;;23.24;90.31;99846.66;6187723;22;45029;-82
2023/09/18 04:28:13;;;;;;;;;3.75;3.75;;;;;23.32;91.05;99847.13;6188481;22;45235;-82
2023/09/18 04:30:39;;;;;;;;;5.75;4.50;;;;;23.39;91.24;99855.78;6186096;23;45275;-82
2023/09/18 04:33:04;;;;;;;;;3.00;3.00;;;;;23.18;91.03;99855.97;6187780;22;45421;-82
2023/09/18 04:35:39;;;;;;;;;1.00;1.00;;;;;23.55;90.25;99862.16;6187570;23;47089;-88
2023/09/18 04:38:06;;;;;;;;;1.50;1.50;;;;;23.17;91.00;99854.22;6186986;22;45478;-88
2023/09/18 04:40:32;;;;;;;;;5.00;3.00;;;;;23.22;90.74;99853.97;6185854;22;45439;-88
2023/09/18 04:43:01;;;;;;;;;5.00;3.50;;;;;23.43;90.09;99849.25;6188899;22;45266;-81
2023/09/18 04:48:48;;;;;;;;;4.50;3.25;;;;;23.23;90.22;99848.47;6194464;22;45092;-83
2023/09/18 04:51:13;;;;;;;;;2.50;2.50;;;;;23.22;90.08;99845.84;6186262;22;45168;-82
2023/09/18 04:53:39;;;;;;;;;4.00;4.00;;;;;23.19;90.13;99846.00;6185756;23;45313;-83
2023/09/18 04:56:12;;;;;;;;;5.50;5.50;;;;;23.52;89.89;99846.06;6186806;22;47011;-82
2023/09/18 04:59:34;;;;;;;;;3.50;3.50;;;;;23.62;89.11;99844.59;6186195;22;44718;-82
2023/09/18 05:01:59;;;;;;;;;3.67;3.67;;;;;23.16;89.81;99847.03;6187256;22;44757;-82
2023/09/18 05:04:25;;;;;;;;;5.75;4.00;;;;;23.14;89.52;99848.94;6189259;22;44811;-82
2023/09/18 05:06:51;;;;;;;;;6.25;2.75;;;;;23.06;89.77;99841.22;6185791;22;47121;-82
2023/09/18 05:09:17;;;;;;;;;3.00;3.00;;;;;23.12;89.67;99842.72;6212592;22;45636;-82
2023/09/18 05:11:43;;;;;;;;;5.75;5.75;;;;;23.14;90.43;99848.94;6189670;22;45342;-82
2023/09/18 05:14:08;;;;;;;;;5.00;5.00;;;;;22.90;90.99;99851.94;6185153;22;45250;-82
2023/09/18 05:16:34;;;;;;;;;4.25;4.00;;;;;22.92;91.31;99849.16;6186268;22;55507;-82
2023/09/18 05:18:59;;;;;;;;;7.00;7.00;;;;;22.91;91.21;99855.56;6188080;22;45329;-82
2023/09/18 05:21:26;;;;;;;;;7.00;3.67;;;;;22.92;91.37;99858.16;6184087;23;45392;-78
2023/09/18 05:23:53;;;;;;;;;5.00;5.00;;;;;22.93;92.01;99861.78;6191946;22;45706;-81
2023/09/18 05:26:18;;;;;;;;;6.00;6.00;;;;;22.99;91.75;99866.88;6197350;22;45113;-80
2023/09/18 05:28:44;;;;;;;;;5.33;5.00;;;;;23.07;91.19;99872.81;6196734;22;44842;-82
2023/09/18 05:31:11;;;;;;;;;3.75;3.75;;;;;23.34;91.60;99862.34;6198268;22;44789;-82
2023/09/18 05:33:37;;;;;;;;;5.00;5.00;;;;;23.16;90.74;99861.47;6221015;22;44828;-80
2023/09/18 05:36:04;;;;;;;;;7.75;7.00;;;;;23.45;91.01;99864.50;6189507;22;45212;-82
2023/09/18 05:38:29;;;;;;;;;6.50;5.00;;;;;23.35;90.48;99866.81;6189919;22;44756;-82
2023/09/18 05:40:56;;;;;;;;;5.00;5.00;;;;;23.59;90.34;99865.59;6193255;22;44719;-82
2023/09/18 05:43:22;;;;;;;;;6.25;5.25;;;;;23.48;90.74;99860.75;6194471;22;44898;-82
2023/09/18 05:45:49;;;;;;;;;8.50;7.50;;;;;23.49;90.14;99848.91;6193237;22;47021;-82
2023/09/18 05:51:37;;;;;;;;;4.50;4.25;;;;;23.67;89.43;99875.09;6195883;22;44774;-82
2023/09/18 05:54:07;;;;;;;;;7.50;7.50;;;;;24.00;89.59;99866.09;6196186;22;44712;-84
2023/09/18 05:56:33;;;;;;;;;6.25;6.25;;;;;23.78;89.46;99870.94;6194104;22;45206;-83
2023/09/18 05:58:59;;;;;;;;;7.33;5.33;;;;;23.73;89.19;99880.19;6192849;22;44856;-82
2023/09/18 06:04:47;;;;;;;;;4.50;4.50;;;;;23.86;88.86;99893.13;6185306;23;45276;-84
2023/09/18 06:07:13;;;;;;;;;6.00;6.00;;;;;23.87;88.06;99894.88;6184737;23;47269;-83
2023/09/18 06:09:39;;;;;;;;;7.50;7.00;;;;;23.96;88.37;99902.53;6185862;23;45852;-84
2023/09/18 06:12:05;;;;;;;;;5.25;5.25;;;;;23.92;88.43;99900.94;6210846;22;45386;-84
2023/09/18 06:14:31;;;;;;;;;5.75;5.75;;;;;23.98;87.99;99902.44;6191354;22;45383;-84
2023/09/18 06:16:57;;;;;;;;;7.25;7.25;;;;;23.96;87.99;99892.53;6188400;23;47522;-84
2023/09/18 06:19:23;;;;;;;;;6.00;6.00;;;;;24.23;88.03;99896.50;6188686;22;45326;-85
2023/09/18 06:21:51;;;;;;;;;6.50;6.25;;;;;24.04;87.17;99885.81;6191803;22;45467;-84
2023/09/18 06:24:17;;;;;;;;;7.00;7.00;;;;;24.02;86.03;99883.16;6191999;22;45424;-85
2023/09/18 06:26:42;;;;;;;;;6.50;6.50;;;;;24.03;86.81;99887.63;6188449;22;47126;-84
2023/09/18 06:29:09;;;;;;;;;5.67;5.67;;;;;24.11;86.54;99890.78;6190390;22;45268;-84
2023/09/18 06:31:35;;;;;;;;;7.25;7.25;;;;;24.16;85.96;99894.16;6187835;23;45417;-84
2023/09/18 06:34:02;;;;;;;;;9.00;6.33;;;;;24.15;86.39;99886.94;6191423;22;45359;-83
2023/09/18 06:36:37;;;;;;;;;7.00;6.00;;;;;24.26;85.99;99904.47;6187987;22;47150;-84
2023/09/18 06:39:04;;;;;;;;;5.00;5.00;;;;;24.47;85.98;99897.84;6191113;22;45409;-84
2023/09/18 06:41:29;;;;;;;;;8.00;8.00;;;;;24.29;85.52;99899.75;6190970;22;45402;-84
2023/09/18 06:43:55;;;;;;;;;10.00;9.00;;;;;24.30;84.85;99897.94;6192054;22;44716;-82
2023/09/18 06:46:24;;;;;;;;;7.00;7.00;;;;;24.62;85.30;99897.94;6165202;22;48009;-84
2023/09/18 06:48:51;;;;;;;;;8.75;8.75;;;;;24.36;85.40;99898.47;6191120;22;45401;-84
2023/09/18 06:51:18;;;;;;;;;8.33;8.33;;;;;24.79;84.99;99881.53;6190948;22;44681;-83
2023/09/18 06:53:46;;;;;;;;;8.33;7.67;;;;;24.93;83.77;99878.00;6189184;22;45437;-83
2023/09/18 06:56:12;;;;;;;;;7.33;6.33;;;;;24.65;84.30;99897.78;6188281;22;47036;-83
2023/09/18 06:58:41;;;;;;;;;10.00;10.00;;;;;24.72;84.55;99901.88;6184715;22;45305;-84
2023/09/18 07:01:08;;;;;;;;;8.67;7.33;;;;;24.73;84.36;99899.09;6190687;22;45340;-83
2023/09/18 07:03:40;;;;;;;;;6.33;6.33;;;;;24.93;83.96;99916.97;6191034;22;44799;-83
2023/09/18 07:06:07;;;;;;;;;10.67;9.00;;;;;25.22;83.56;99918.97;6191239;22;47337;-83
2023/09/18 07:08:32;;;;;;;;;8.00;6.67;;;;;25.09;82.53;99918.78;6188515;22;45533;-85
2023/09/18 07:10:58;;;;;;;;;9.33;8.00;;;;;25.26;82.80;99917.81;6187395;22;45421;-83
2023/09/18 07:13:24;;;;;;;;;11.67;8.67;;;;;25.29;81.79;99921.22;6188310;22;44890;-83
2023/09/18 07:15:49;;;;;;;;;10.33;9.00;;;;;25.34;81.08;99920.94;6188722;22;47328;-81
2023/09/18 07:18:15;;;;;;;;;8.00;6.33;;;;;25.43;81.60;99914.06;6190016;22;45335;-82
2023/09/18 07:20:43;;;;;;;;;11.33;8.67;;;;;25.60;80.77;99921.22;6188504;22;45384;-82
2023/09/18 07:23:09;;;;;;;;;9.00;9.00;;;;;26.13;78.03;99920.59;6164771;22;44919;-83
2023/09/18 07:25:38;;;;;;;;;8.75;8.75;;;;;26.66;76.92;99907.22;6188574;22;46591;-83
2023/09/18 07:28:08;;;;;;;;;10.00;9.00;;;;;26.54;76.54;99911.59;6189045;22;45313;-82
2023/09/18 07:30:38;;;;;;;;;7.33;7.33;;;;;26.40;75.75;99911.63;6193917;22;44780;-82
2023/09/18 07:33:07;;;;;;;;;7.50;7.50;;;;;26.11;76.37;99925.25;6187073;22;45411;-83
2023/09/18 07:35:36;;;;;;;;;7.00;6.67;;;;;26.74;75.61;99923.06;6185217;22;47123;-83
2023/09/18 07:38:01;;;;;;;;;7.33;7.00;;;;;26.08;75.34;99906.38;6199922;22;44668;-83
2023/09/18 07:54:32;;;;;;;;;6.00;6.00;;;;;26.20;75.82;99896.56;6148592;22;46172;-85
2023/09/18 07:59:33;;;;;;;;;8.25;7.75;;;;;26.05;75.49;99920.19;6168944;22;45745;-82
2023/09/18 08:02:09;;;;;;;;;7.00;7.00;;;;;26.46;74.89;99933.03;6194393;22;45357;-82
2023/09/18 08:04:55;;;;;;;;;;;;;;;;;;;;;
2023/09/18 08:23:05;;;;;;;;;5.00;5.00;;;;;26.72;72.67;99908.63;6201324;22;45023;-83
2023/09/18 08:25:50;;;;;;;;;7.67;7.00;;;;;27.21;71.54;99929.91;6222997;22;44858;-83
2023/09/18 08:28:26;;;;;;;;;;;;;;;;;;;;;
2023/09/18 08:33:40;;;;;;;;;;;;;;;;;;;;;
2023/09/18 08:36:06;;;;;;;;;6.75;6.75;;;;;26.93;70.98;99925.44;6196397;22;65288;-82
2023/09/18 08:38:47;;;;;;;;;7.00;7.00;;;;;27.10;69.77;99922.44;6165943;22;46646;-82
2023/09/18 08:41:19;;;;;;;;;6.50;5.75;;;;;27.22;70.17;99937.09;6169339;22;45009;-84
2023/09/18 08:43:59;;;;;;;;;6.67;5.00;;;;;27.07;68.49;99917.19;6172236;23;44732;-83
2023/09/18 08:46:56;;;;;;;;;;;;;;;;;;;;;
2023/09/18 08:49:37;;;;;;;;;8.50;7.50;;;;;27.00;69.00;99915.84;6200441;22;45531;-84
2023/09/18 08:52:13;;;;;;;;;8.50;8.00;;;;;26.73;69.50;99907.69;6072651;22;45577;-84
2023/09/18 08:55:28;;;;;;;;;6.50;6.50;;;;;27.29;68.88;99949.41;6057946;22;44779;-82
2023/09/18 08:58:09;;;;;;;;;;;;;;;;;;;;;
2023/09/18 09:00:39;;;;;;;;;7.67;7.67;;;;;27.03;69.92;99914.78;6173636;23;74495;-84
2023/09/18 09:03:41;;;;;;;;;7.00;4.33;;;;;27.54;68.06;99955.91;6167406;22;44848;-84
2023/09/18 09:06:26;;;;;;;;;8.33;7.00;;;;;27.29;68.97;99927.56;6155334;22;46202;-84
2023/09/18 09:08:59;;;;;;;;;4.00;4.00;;;;;27.40;67.28;99912.28;6260552;22;44787;-82
2023/09/18 09:11:25;;;;;;;;;8.00;6.00;;;;;27.29;66.29;99949.41;6137129;22;45269;-85
2023/09/18 09:14:17;;;;;;;;;8.00;8.00;;;;;27.62;66.61;99956.25;6162147;22;45502;-84
2023/09/18 09:16:55;;;;;;;;;6.67;4.33;;;;;27.60;66.92;99950.03;6163761;22;45225;-82
2023/09/18 09:19:42;;;;;;;;;6.00;6.00;;;;;27.63;65.99;99930.69;6172430;22;45474;-83
2023/09/18 09:22:27;;;;;;;;;7.75;6.00;;;;;28.30;64.82;99946.03;6173206;22;45388;-83
2023/09/18 09:25:09;;;;;;;;;7.67;6.00;;;;;27.63;64.18;99938.00;6169681;22;45486;-81
2023/09/18 09:39:27;;;;;;;;;5.00;5.00;;;;;28.02;64.68;99937.06;6196825;22;45514;-85
2023/09/18 09:57:57;;;;;;;;;3.00;3.00;;;;;28.17;62.98;99939.69;6173541;22;45270;-84
2023/09/18 10:01:10;;;;;;;;;5.00;3.75;;;;;28.42;62.00;99956.06;6167912;22;44926;-86
2023/09/18 10:03:48;;;;;;;;;;;;;;;;;;;;;
2023/09/18 10:06:47;;;;;;;;;;;;;;;;;;;;;
2023/09/18 10:15:11;;;;;;;;;3.50;3.50;;;;;28.53;61.72;99958.06;6123724;22;47040;-84
2023/09/18 10:17:58;;;;;;;;;;;;;;;;;;;;;
2023/09/18 10:20:42;;;;;;;;;3.75;3.75;;;;;28.69;60.99;99960.53;6197629;22;72331;-84
2023/09/18 10:33:31;;;;;;;;;7.25;6.00;;;;;28.20;59.68;99939.44;6184382;22;46381;-82
2023/09/18 10:36:08;;;;;;;;;3.50;3.50;;;;;28.73;59.11;99964.78;6219755;22;45286;-83
2023/09/18 10:38:44;;;;;;;;;5.50;5.00;;;;;28.76;59.84;99964.53;6196415;22;47005;-82
2023/09/18 10:41:11;;;;;;;;;4.00;4.00;;;;;28.86;58.19;99949.19;6194163;22;45362;-83
2023/09/18 10:43:39;;;;;;;;;5.00;5.00;;;;;29.01;57.72;99943.56;6220429;22;45270;-82
2023/09/18 10:46:07;;;;;;;;;3.25;2.75;;;;;29.19;58.09;99939.47;6192908;22;44898;-82
2023/09/18 10:48:36;;;;;;;;;3.50;3.00;;;;;29.56;57.72;99931.13;6214418;22;46836;-84
2023/09/18 10:51:05;;;;;;;;;5.75;4.00;;;;;29.28;56.38;99930.53;6191695;22;44751;-82
2023/09/18 10:56:59;;;;;;;;;5.00;3.25;;;;;29.82;55.97;99961.13;6219840;22;45341;-83
2023/09/18 10:59:28;;;;;;;;;3.00;3.00;;;;;29.69;55.18;99953.84;6220138;22;45387;-82
2023/09/18 11:01:55;;;;;;;;;5.00;4.00;;;;;29.43;55.27;99933.06;6192336;22;45577;-83
2023/09/18 11:04:29;;;;;;;;;8.00;4.75;;;;;29.29;55.23;99912.25;6194067;22;44952;-84
2023/09/18 11:07:09;;;;;;;;;;;;;;;;;;;;;
2023/09/18 11:15:00;;;;;;;;;6.75;6.50;;;;;29.60;54.70;99938.09;6218538;22;45380;-86
2023/09/18 11:17:42;;;;;;;;;5.67;4.00;;;;;29.67;54.45;99944.88;6193969;22;44776;-85
2023/09/18 11:20:17;;;;;;;;;5.00;5.00;;;;;29.56;54.34;99947.56;6198197;22;47654;-85
2023/09/18 11:23:11;;;;;;;;;4.00;4.00;;;;;29.77;54.33;99966.94;6191175;22;45344;-86
2023/09/18 11:26:23;;;;;;;;;6.00;4.67;;;;;29.85;53.75;99956.25;6101223;22;45440;-84
2023/09/18 11:29:35;;;;;;;;;6.75;6.75;;;;;29.88;53.66;99966.13;6102640;22;44859;-83
2023/09/18 11:32:15;;;;;;;;;5.50;5.50;;;;;29.87;54.60;99954.28;6123940;22;46743;-85
2023/09/18 11:35:35;;;;;;;;;8.67;8.67;;;;;29.98;52.75;99945.22;6136492;22;44777;-84
2023/09/18 11:43:48;;;;;;;;;5.50;5.00;;;;;29.68;53.39;99912.84;6175786;22;45258;-82
2023/09/18 11:47:07;;;;;;;;;5.00;5.00;;;;;29.81;53.85;99926.47;6190448;22;44762;-88
2023/09/18 11:52:34;;;;;;;;;5.00;5.00;;;;;29.98;53.59;99909.56;6203435;22;45297;-85
2023/09/18 12:00:45;;;;;;;;;3.00;3.00;;;;;30.70;51.59;99933.00;6204174;22;44952;-81
2023/09/18 12:03:31;;;;;;;;;3.50;3.50;;;;;30.76;51.57;99912.41;6223863;22;45289;-80
2023/09/18 12:06:15;;;;;;;;;4.50;4.25;;;;;30.93;50.65;99909.16;6224956;22;45169;-83
2023/09/18 12:11:19;;;;;;;;;2.50;2.50;;;;;30.93;48.89;99927.50;6213039;22;45563;-82
2023/09/18 12:13:53;;;;;;;;;3.50;3.50;;;;;31.28;48.10;99933.59;6195092;22;45335;-82
2023/09/18 12:16:21;;;;;;;;;4.00;4.00;;;;;31.25;49.92;99919.28;6219592;22;45462;-81
2023/09/18 12:18:54;;;;;;;;;3.75;3.75;;;;;31.21;49.04;99896.69;6220104;22;44673;-83
2023/09/18 12:24:45;;;;;;;;;2.33;2.33;;;;;31.23;47.03;99913.91;6219626;22;45424;-82
2023/09/18 12:27:33;;;;;;;;;4.25;3.75;;;;;31.13;48.19;99901.97;6221240;22;44965;-81
2023/09/18 12:30:04;;;;;;;;;4.00;4.00;;;;;31.22;47.97;99895.66;6254643;22;44922;-82
2023/09/18 12:32:35;;;;;;;;;3.50;3.50;;;;;30.94;47.62;99913.63;6254353;22;45509;-83
2023/09/18 12:35:01;;;;;;;;;5.00;5.00;;;;;30.85;48.19;99909.75;6256247;22;44926;-84
2023/09/18 12:37:30;;;;;;;;;3.25;3.25;;;;;30.92;48.57;99907.38;6229194;22;46869;-82
2023/09/18 12:40:22;;;;;;;;;3.50;3.50;;;;;31.24;47.81;99890.91;6255043;22;44833;-81
2023/09/18 12:42:53;;;;;;;;;5.00;5.00;;;;;31.16;48.56;99926.41;6255583;22;44739;-82
2023/09/18 12:48:26;;;;;;;;;4.00;4.00;;;;;31.54;47.79;99915.91;6164976;22;44965;-83
2023/09/18 12:51:12;;;;;;;;;5.33;5.33;;;;;31.57;47.97;99921.13;6142968;23;44988;-83
2023/09/18 12:53:38;;;;;;;;;3.33;3.33;;;;;31.28;47.74;99913.50;6139922;23;45528;-81
2023/09/18 12:56:14;;;;;;;;;2.00;2.00;;;;;31.48;47.57;99906.31;6163246;23;45535;-83
2023/09/18 12:58:43;;;;;;;;;5.00;5.00;;;;;31.35;47.58;99916.59;6161904;23;45332;-80
2023/09/18 13:01:14;;;;;;;;;2.25;2.25;;;;;31.01;46.54;99892.03;6160138;23;45408;-82
2023/09/18 13:04:06;;;;;;;;;;;;;;;;;;;;;
2023/09/18 13:10:13;;;;;;;;;6.50;4.00;;;;;30.92;45.74;99903.78;6123282;22;46038;-81
2023/09/18 13:12:43;;;;;;;;;3.00;3.00;;;;;30.40;46.87;99882.41;6098700;22;44843;-83
2023/09/18 13:15:12;;;;;;;;;3.50;3.50;;;;;30.28;47.29;99883.41;6100041;22;45167;-82
2023/09/18 13:17:57;;;;;;;;;;;;;;;;;;;;;
2023/09/18 13:23:48;;;;;;;;;1.75;1.75;;;;;30.98;46.52;99904.13;6134968;22;45305;-83
2023/09/18 13:26:28;;;;;;;;;;;;;;;;;;;;;
2023/09/18 13:29:15;;;;;;;;;2.75;2.75;;;;;31.12;45.69;99911.19;6178016;22;65332;-82
2023/09/18 13:31:41;;;;;;;;;1.33;1.33;;;;;30.75;46.06;99873.09;6219917;22;46728;-82
2023/09/18 13:34:09;;;;;;;;;2.75;2.75;;;;;30.89;45.92;99888.44;6227386;22;44785;-82
2023/09/18 13:36:54;;;;;;;;;2.25;2.25;;;;;31.32;45.34;99889.38;6217031;22;45191;-82
2023/09/18 13:39:25;;;;;;;;;2.00;1.50;;;;;31.17;45.02;99921.78;6154758;23;46451;-81
2023/09/18 13:41:51;;;;;;;;;1.50;1.50;;;;;31.25;44.77;99916.53;6195562;23;47130;-82
2023/09/18 13:44:19;;;;;;;;;1.00;1.00;;;;;31.12;42.58;99900.22;6192465;23;44784;-82
2023/09/18 13:46:44;;;;;;;;;2.50;2.25;;;;;31.25;44.05;99917.41;6192298;22;44841;-82
2023/09/18 13:49:13;;;;;;;;;1.25;1.25;;;;;31.54;43.58;99910.41;6192154;23;44728;-82
2023/09/18 13:51:39;;;;;;;;;0.25;0.25;;;;;31.47;42.28;99910.94;6217843;22;47432;-83
2023/09/18 13:54:29;;;;;;;;;1.50;1.50;;;;;31.67;41.48;99883.59;6177413;22;44917;-83
2023/09/18 13:56:55;;;;;;;;;3.00;1.50;;;;;31.45;42.24;99895.56;6160300;22;44868;-78
2023/09/18 13:59:24;;;;;;;;;4.25;2.75;;;;;31.39;41.80;99899.72;6131033;22;45344;-79
2023/09/18 14:01:55;;;;;;;;;0.25;0.25;;;;;31.74;41.83;99920.53;6129932;22;45488;-80
2023/09/18 14:04:22;;;;;;;;;2.00;1.00;;;;;31.59;41.65;99892.53;6130954;22;44779;-79
2023/09/18 14:06:48;;;;;;;;;1.75;1.75;;;;;31.49;42.33;99913.53;6156903;23;44890;-79
2023/09/18 14:09:13;;;;;;;;;2.00;1.00;;;;;31.49;42.03;99877.81;6134684;22;45527;-79
2023/09/18 14:11:42;;;;;;;;;1.75;1.75;;;;;31.90;42.79;99895.31;6156868;23;45266;-79
2023/09/18 14:14:28;;;;;;;;;1.50;1.50;;;;;31.40;42.40;99895.94;6131310;22;45508;-78
2023/09/18 14:24:29;;;;;;;;;0.75;0.75;;;;;31.50;42.08;99879.56;5983191;23;45351;-79
2023/09/18 14:27:07;;;;;;;;;0.25;0.25;;;;;31.78;41.49;99921.16;5937012;23;45308;-78
2023/09/18 14:29:40;;;;;;;;;0.00;0.00;;;;;31.46;40.78;99889.97;5959042;23;45304;-79
2023/09/18 14:32:13;;;;;;;;;2.00;2.00;;;;;31.51;41.63;99897.81;5957157;23;44911;-79
2023/09/18 14:35:32;;;;;;;;;1.25;1.25;;;;;31.72;41.62;99908.81;5959250;23;45594;-79
2023/09/18 14:37:57;;;;;;;;;0.00;0.00;;;;;31.24;41.07;99909.28;5960277;23;44845;-79
2023/09/18 14:40:52;;;;;;;;;0.25;0.25;;;;;31.04;41.79;99924.72;5960046;23;45330;-80
2023/09/18 14:43:19;;;;;;;;;1.00;1.00;;;;;31.04;41.97;99913.72;5960172;23;45619;-79
2023/09/18 14:46:00;;;;;;;;;1.00;1.00;;;;;30.85;41.67;99909.75;5959890;23;45349;-78
2023/09/18 14:48:32;;;;;;;;;1.50;1.50;;;;;30.36;42.12;99910.19;5959577;23;45108;-80
2023/09/18 14:51:08;;;;;;;;;2.25;2.25;;;;;30.29;42.93;99923.53;5958617;23;45553;-79
2023/09/18 14:53:39;;;;;;;;;2.75;2.75;;;;;30.15;43.71;99923.78;5974353;23;45514;-80
2023/09/18 14:56:17;;;;;;;;;3.25;3.25;;;;;30.11;43.96;99918.53;6015802;23;47142;-79
2023/09/18 14:58:45;;;;;;;;;2.75;2.75;;;;;29.94;43.58;99899.84;6018351;23;45424;-79
2023/09/18 15:01:11;;;;;;;;;2.50;2.50;;;;;29.97;43.63;99921.50;6092796;22;45445;-78
2023/09/18 15:03:49;;;;;;;;;2.25;2.25;;;;;29.96;43.82;99908.81;6131896;22;45205;-79
2023/09/18 15:06:17;;;;;;;;;3.50;3.00;;;;;29.64;44.26;99901.25;6129563;23;45586;-79
2023/09/18 15:08:48;;;;;;;;;1.25;1.25;;;;;29.64;44.70;99889.44;6260563;22;45336;-79
2023/09/18 15:11:20;;;;;;;;;3.25;3.25;;;;;29.79;44.79;99909.28;6129610;22;45182;-79
2023/09/18 15:13:52;;;;;;;;;1.33;1.33;;;;;29.35;45.96;99908.13;6156720;23;44696;-79
2023/09/18 15:16:20;;;;;;;;;4.00;4.00;;;;;29.39;46.53;99934.28;6129877;22;47185;-78
2023/09/18 15:19:32;;;;;;;;;2.75;2.75;;;;;29.65;46.45;99938.63;6131813;22;45351;-79
2023/09/18 15:22:18;;;;;;;;;3.00;3.00;;;;;29.04;47.21;99927.75;6157051;23;44795;-78
2023/09/18 15:24:46;;;;;;;;;3.33;2.00;;;;;28.98;47.92;99906.31;6101400;23;44790;-77
2023/09/18 15:27:12;;;;;;;;;3.50;3.50;;;;;28.64;47.88;99910.75;6124576;23;47777;-78